createdAt,value
2022-10-27T00:03:57.781Z,11.45
2022-10-27T00:10:45.181Z,12.73
2022-10-27T00:17:34.623Z,12.50
2022-10-27T00:24:20.062Z,10.50
2022-10-27T00:31:09.789Z,8.80
2022-10-27T00:37:57.743Z,10.43
2022-10-27T00:44:45.409Z,9.30
2022-10-27T00:51:30.990Z,10.35
2022-10-27T00:58:22.420Z,8.93
2022-10-27T01:05:14.669Z,8.48
2022-10-27T01:12:00.050Z,11.90
2022-10-27T01:19:01.511Z,8.52
2022-10-27T01:26:47.025Z,8.38
2022-10-27T01:33:43.675Z,8.48
2022-10-27T01:40:35.275Z,6.22
2022-10-27T01:47:20.899Z,9.10
2022-10-27T01:54:09.879Z,10.87
2022-10-27T02:08:43.883Z,6.65
2022-10-27T02:15:40.709Z,12.07
2022-10-27T02:22:29.530Z,9.38
2022-10-27T02:29:20.116Z,7.05
2022-10-27T02:36:09.101Z,9.00
2022-10-27T02:42:54.652Z,11.23
2022-10-27T03:03:30.737Z,7.13
2022-10-27T03:10:16.173Z,10.00
2022-10-27T03:17:02.013Z,7.13
2022-10-27T03:23:49.981Z,8.97
2022-10-27T03:30:35.376Z,9.65
2022-10-27T03:37:20.764Z,8.70
2022-10-27T03:44:08.896Z,8.23
2022-10-27T03:50:54.786Z,7.28
2022-10-27T03:57:40.146Z,7.07
2022-10-27T04:04:28.102Z,6.82
2022-10-27T04:11:13.481Z,7.63
2022-10-27T04:18:00.973Z,10.25
2022-10-27T04:24:48.900Z,6.70
2022-10-27T04:31:34.233Z,6.30
2022-10-27T04:38:19.625Z,8.02
2022-10-27T04:45:08.712Z,8.05
2022-10-27T04:51:54.062Z,10.63
2022-10-27T04:58:39.485Z,6.55
2022-10-27T05:05:30.186Z,9.02
2022-10-27T05:12:15.533Z,7.85
2022-10-27T05:19:00.909Z,9.95
2022-10-27T05:25:53.847Z,7.37
2022-10-27T05:32:43.303Z,10.98
2022-10-27T05:39:32.671Z,7.00
2022-10-27T05:46:20.610Z,6.53
2022-10-27T05:53:06.680Z,6.68
2022-10-27T05:59:52.013Z,8.27
2022-10-27T06:06:39.941Z,7.85
2022-10-27T06:13:25.279Z,6.82
2022-10-27T06:20:12.403Z,9.73
2022-10-27T06:27:00.358Z,6.43
2022-10-27T06:33:45.954Z,6.78
2022-10-27T06:40:31.433Z,12.38
2022-10-27T06:47:19.434Z,8.15
2022-10-27T06:54:04.840Z,8.85
2022-10-27T07:00:50.180Z,14.80
2022-10-27T07:07:38.932Z,16.85
2022-10-27T07:14:24.307Z,10.60
2022-10-27T07:21:09.944Z,22.30
2022-10-27T07:27:58.565Z,18.67
2022-10-27T07:34:44.040Z,11.02
2022-10-27T07:41:29.388Z,23.65
2022-10-27T07:48:19.056Z,9.25
2022-10-27T07:55:04.375Z,10.13
2022-10-27T08:01:49.863Z,7.53
2022-10-27T08:08:37.803Z,10.00
2022-10-27T08:15:23.399Z,7.72
2022-10-27T08:22:13.053Z,8.48
2022-10-27T08:29:02.075Z,9.20
2022-10-27T08:35:47.447Z,8.30
2022-10-27T08:42:44.803Z,8.90
2022-10-27T08:49:43.452Z,9.27
2022-10-27T08:56:41.571Z,7.82
2022-10-27T09:03:47.739Z,8.13
2022-10-27T09:10:46.112Z,10.03
2022-10-27T09:17:35.397Z,10.35
2022-10-27T09:24:26.616Z,20.38
2022-10-27T09:31:20.321Z,13.93
2022-10-27T09:38:05.768Z,14.48
2022-10-27T09:44:59.322Z,11.75
2022-10-27T09:51:53.185Z,11.57
2022-10-27T09:58:51.882Z,15.13
2022-10-27T10:05:40.328Z,17.83
2022-10-27T10:12:29.458Z,15.57
2022-10-27T10:19:21.048Z,12.80
2022-10-27T10:26:20.551Z,17.52
2022-10-27T10:33:10.354Z,18.75
2022-10-27T10:39:55.718Z,17.95
2022-10-27T10:46:44.987Z,28.60
2022-10-27T10:53:38.612Z,17.48
2022-10-27T11:00:25.420Z,17.05
2022-10-27T11:07:23.888Z,15.57
2022-10-27T11:14:18.849Z,23.55
2022-10-27T11:21:13.180Z,24.70
2022-10-27T11:28:05.833Z,23.95
2022-10-27T11:35:07.527Z,20.48
2022-10-27T11:42:01.172Z,24.40
2022-10-27T11:48:54.466Z,21.25
2022-10-27T11:56:04.183Z,25.45
2022-10-27T12:17:39.887Z,24.92
2022-10-27T12:24:33.488Z,21.42
2022-10-27T12:31:27.865Z,23.67
2022-10-27T12:38:21.375Z,24.45
2022-10-27T12:45:35.251Z,21.60
2022-10-27T12:52:26.034Z,19.92
2022-10-27T12:59:26.854Z,25.90
2022-10-27T13:06:33.343Z,24.13
2022-10-27T13:20:58.187Z,18.38
2022-10-27T13:27:50.985Z,18.95
2022-10-27T13:34:39.280Z,16.70
2022-10-27T13:41:53.208Z,17.42
2022-10-27T13:48:38.602Z,17.00
2022-10-27T13:55:39.870Z,18.70
2022-10-27T14:02:37.543Z,17.63
2022-10-27T14:09:32.897Z,16.33
2022-10-27T14:16:26.876Z,22.07
2022-10-27T14:23:16.793Z,15.70
2022-10-27T14:30:20.596Z,14.73
2022-10-27T14:37:12.993Z,13.20
2022-10-27T14:44:02.714Z,11.95
2022-10-27T14:50:48.768Z,12.85
2022-10-27T14:57:39.506Z,17.30
2022-10-27T15:04:27.322Z,20.23
2022-10-27T15:11:19.881Z,17.27
2022-10-27T15:25:24.707Z,16.15
2022-10-27T15:32:22.270Z,19.48
2022-10-27T15:39:20.496Z,18.23
2022-10-27T15:46:17.630Z,16.55
2022-10-27T15:53:17.201Z,18.02
2022-10-27T16:00:25.323Z,18.92
2022-10-27T16:07:33.905Z,14.88
2022-10-27T16:14:19.625Z,19.23
2022-10-27T16:21:07.949Z,16.15
2022-10-27T16:27:53.633Z,30.30
2022-10-27T16:34:38.987Z,29.58
2022-10-27T16:41:31.512Z,25.73
2022-10-27T16:48:17.697Z,24.65
2022-10-27T16:55:06.040Z,27.92
2022-10-27T17:01:54.142Z,32.35
2022-10-27T17:08:40.988Z,23.70
2022-10-27T17:15:26.334Z,24.17
2022-10-27T17:22:14.296Z,20.17
2022-10-27T17:28:59.919Z,25.23
2022-10-27T17:35:45.253Z,19.25
2022-10-27T17:42:33.558Z,17.27
2022-10-27T17:49:18.992Z,16.17
2022-10-27T17:56:06.517Z,21.33
2022-10-27T18:02:57.689Z,18.92
2022-10-27T18:09:45.150Z,15.60
2022-10-27T18:16:34.286Z,19.08
2022-10-27T18:23:22.404Z,13.75
2022-10-27T18:30:09.739Z,15.30
2022-10-27T18:36:55.109Z,21.17
2022-10-27T18:43:45.452Z,16.30
2022-10-27T18:50:30.922Z,17.52
2022-10-27T18:57:16.668Z,16.70
2022-10-27T19:04:08.377Z,17.20
2022-10-27T19:10:55.891Z,14.07
2022-10-27T19:17:44.589Z,13.45
2022-10-27T19:24:32.898Z,11.35
2022-10-27T19:31:21.664Z,11.55
2022-10-27T19:38:07.138Z,12.80
2022-10-27T19:44:55.583Z,11.20
2022-10-27T19:51:42.257Z,10.68
2022-10-27T19:58:27.642Z,14.43
2022-10-27T20:05:15.601Z,13.07
2022-10-27T20:12:02.566Z,13.70
2022-10-27T20:18:48.690Z,12.77
2022-10-27T20:32:22.500Z,17.92
2022-10-27T20:39:09.579Z,15.97
2022-10-27T20:46:00.541Z,14.93
2022-10-27T20:52:46.421Z,18.35
2022-10-27T20:59:31.769Z,15.87
2022-10-27T21:06:19.716Z,19.60
2022-10-27T21:13:05.136Z,13.85
2022-10-27T21:19:50.516Z,19.30
2022-10-27T21:26:38.732Z,15.00
2022-10-27T21:33:24.077Z,13.98
2022-10-27T21:40:12.218Z,13.57
2022-10-27T21:47:00.199Z,13.30
2022-10-27T21:53:46.285Z,12.02
2022-10-27T22:00:31.744Z,13.98
2022-10-27T22:07:19.801Z,10.43
2022-10-27T22:14:05.694Z,14.32
2022-10-27T22:20:51.093Z,13.73
2022-10-27T22:27:39.114Z,17.33
2022-10-27T22:34:24.460Z,18.50
2022-10-27T22:41:12.908Z,16.37
2022-10-27T22:48:01.543Z,16.00
2022-10-27T22:54:46.918Z,13.65
2022-10-27T23:01:34.974Z,11.17
2022-10-27T23:08:23.025Z,14.98
2022-10-27T23:15:09.918Z,11.13
2022-10-27T23:21:55.288Z,11.38
2022-10-27T23:28:43.233Z,11.47
2022-10-27T23:35:28.661Z,11.50
2022-10-27T23:42:14.009Z,12.83
2022-10-27T23:49:02.426Z,10.10
2022-10-27T23:55:47.853Z,9.57
